UAL621 KABQ-KDEN
Flight info
| Callsign | UAL621 |
|---|---|
| Flight time | 0h 51m |
| Altitude | 33000 |
| Route | ATOMK3 ATOMK GNDLA TBARR4 |
| Aircraft | A320/M-SDE3FGHIRWY/LB1 |
Departure
| Time | 2026-05-05 19:13 |
|---|---|
| Airport | Albuquerque International Sunport (KABQ) |
Arrival
| Time | 2026-05-05 20:04 |
|---|---|
| Airport | Denver International Airport (KDEN) |
| Time | Latitude | Longitude | Altitude | Speed | Heading |
|---|---|---|---|---|---|
| 2026-05-05 18:57 | 35.04821 | -106.59603 | 5332 ft | 0 kts | 91° |
| 2026-05-05 19:05 | 35.04822 | -106.59620 | 5337 ft | 3 kts | 115° |
| 2026-05-05 19:05 | 35.04836 | -106.59640 | 5339 ft | 3 kts | 164° |
| 2026-05-05 19:05 | 35.04846 | -106.59643 | 5337 ft | 0 kts | 187° |
| 2026-05-05 19:06 | 35.04827 | -106.59646 | 5335 ft | 4 kts | 187° |
| 2026-05-05 19:07 | 35.04801 | -106.59648 | 5332 ft | 4 kts | 180° |
| 2026-05-05 19:07 | 35.04775 | -106.59643 | 5331 ft | 4 kts | 170° |
| 2026-05-05 19:07 | 35.04743 | -106.59638 | 5333 ft | 5 kts | 173° |
| 2026-05-05 19:07 | 35.04695 | -106.59620 | 5332 ft | 9 kts | 132° |
| 2026-05-05 19:08 | 35.04683 | -106.59534 | 5332 ft | 12 kts | 90° |
| 2026-05-05 19:08 | 35.04683 | -106.59417 | 5334 ft | 16 kts | 90° |
| 2026-05-05 19:08 | 35.04682 | -106.59279 | 5322 ft | 17 kts | 91° |
| 2026-05-05 19:08 | 35.04678 | -106.59133 | 5331 ft | 17 kts | 91° |
| 2026-05-05 19:09 | 35.04678 | -106.58987 | 5321 ft | 18 kts | 90° |
| 2026-05-05 19:09 | 35.04667 | -106.58832 | 5318 ft | 16 kts | 122° |
| 2026-05-05 19:09 | 35.04596 | -106.58805 | 5323 ft | 9 kts | 150° |
| 2026-05-05 19:09 | 35.04579 | -106.58740 | 5328 ft | 9 kts | 90° |
| 2026-05-05 19:10 | 35.04580 | -106.58660 | 5327 ft | 10 kts | 90° |
| 2026-05-05 19:10 | 35.04579 | -106.58566 | 5323 ft | 12 kts | 91° |
| 2026-05-05 19:10 | 35.04578 | -106.58465 | 5327 ft | 12 kts | 91° |
| 2026-05-05 19:10 | 35.04577 | -106.58366 | 5331 ft | 11 kts | 91° |
| 2026-05-05 19:11 | 35.04548 | -106.58287 | 5331 ft | 10 kts | 149° |
| 2026-05-05 19:11 | 35.04480 | -106.58294 | 5331 ft | 10 kts | 213° |
| 2026-05-05 19:11 | 35.04424 | -106.58356 | 5332 ft | 11 kts | 239° |
| 2026-05-05 19:11 | 35.04413 | -106.58450 | 5330 ft | 12 kts | 270° |
| 2026-05-05 19:12 | 35.04414 | -106.58695 | 5330 ft | 61 kts | 270° |
| 2026-05-05 19:12 | 35.04418 | -106.59485 | 5324 ft | 122 kts | 270° |
| 2026-05-05 19:12 | 35.04426 | -106.60723 | 5335 ft | 168 kts | 271° |
| 2026-05-05 19:12 | 35.04432 | -106.62249 | 5771 ft | 183 kts | 271° |
| 2026-05-05 19:13 | 35.04513 | -106.63848 | 6423 ft | 195 kts | 274° |
| 2026-05-05 19:13 | 35.04672 | -106.65519 | 7052 ft | 199 kts | 278° |
| 2026-05-05 19:13 | 35.04936 | -106.67207 | 7435 ft | 215 kts | 280° |
| 2026-05-05 19:13 | 35.05255 | -106.69106 | 7730 ft | 234 kts | 281° |
| 2026-05-05 19:14 | 35.05589 | -106.71135 | 7987 ft | 259 kts | 280° |
| 2026-05-05 19:14 | 35.05940 | -106.73372 | 8482 ft | 274 kts | 279° |
| 2026-05-05 19:14 | 35.06288 | -106.75693 | 9263 ft | 280 kts | 280° |
| 2026-05-05 19:14 | 35.07005 | -106.77908 | 10020 ft | 287 kts | 307° |
| 2026-05-05 19:15 | 35.08591 | -106.79397 | 10687 ft | 295 kts | 335° |
| 2026-05-05 19:15 | 35.10560 | -106.80068 | 11422 ft | 300 kts | 348° |
| 2026-05-05 19:15 | 35.12659 | -106.80365 | 12163 ft | 304 kts | 352° |
| 2026-05-05 19:15 | 35.14786 | -106.80559 | 12886 ft | 308 kts | 352° |
| 2026-05-05 19:16 | 35.16938 | -106.80784 | 13389 ft | 310 kts | 350° |
| 2026-05-05 19:16 | 35.19091 | -106.81087 | 14048 ft | 313 kts | 347° |
| 2026-05-05 19:16 | 35.21263 | -106.81472 | 14377 ft | 329 kts | 346° |
| 2026-05-05 19:16 | 35.23600 | -106.81955 | 14536 ft | 349 kts | 345° |
| 2026-05-05 19:17 | 35.26025 | -106.82485 | 14977 ft | 357 kts | 345° |
| 2026-05-05 19:17 | 35.28459 | -106.83027 | 15530 ft | 361 kts | 344° |
| 2026-05-05 19:17 | 35.30950 | -106.83585 | 16109 ft | 365 kts | 344° |
| 2026-05-05 19:17 | 35.33469 | -106.84145 | 16700 ft | 369 kts | 344° |
| 2026-05-05 19:18 | 35.36004 | -106.84702 | 17283 ft | 372 kts | 344° |
| 2026-05-05 19:18 | 35.38567 | -106.85263 | 17863 ft | 376 kts | 344° |
| 2026-05-05 19:18 | 35.41163 | -106.85830 | 18400 ft | 380 kts | 343° |
| 2026-05-05 19:18 | 35.43785 | -106.86382 | 18921 ft | 385 kts | 345° |
| 2026-05-05 19:19 | 35.46454 | -106.86849 | 19453 ft | 389 kts | 346° |
| 2026-05-05 19:19 | 35.49162 | -106.87256 | 19975 ft | 394 kts | 347° |
| 2026-05-05 19:19 | 35.51869 | -106.87634 | 20485 ft | 398 kts | 347° |
| 2026-05-05 19:19 | 35.54641 | -106.88017 | 21012 ft | 401 kts | 346° |
| 2026-05-05 19:20 | 35.57425 | -106.88412 | 21508 ft | 405 kts | 347° |
| 2026-05-05 19:20 | 35.60238 | -106.88828 | 22003 ft | 409 kts | 346° |
| 2026-05-05 19:20 | 35.63079 | -106.89262 | 22493 ft | 413 kts | 346° |
| 2026-05-05 19:20 | 35.65944 | -106.89709 | 22977 ft | 416 kts | 346° |
| 2026-05-05 19:21 | 35.68839 | -106.90163 | 23435 ft | 420 kts | 346° |
| 2026-05-05 19:21 | 35.71720 | -106.90617 | 23827 ft | 424 kts | 345° |
| 2026-05-05 19:21 | 35.74676 | -106.91081 | 24222 ft | 428 kts | 345° |
| 2026-05-05 19:21 | 35.77649 | -106.91547 | 24597 ft | 432 kts | 344° |
| 2026-05-05 19:22 | 35.80650 | -106.92015 | 24980 ft | 436 kts | 344° |
| 2026-05-05 19:22 | 35.83688 | -106.92485 | 25357 ft | 441 kts | 344° |
| 2026-05-05 19:22 | 35.86703 | -106.92944 | 25709 ft | 444 kts | 343° |
| 2026-05-05 19:22 | 35.89826 | -106.93421 | 26064 ft | 448 kts | 343° |
| 2026-05-05 19:23 | 35.92889 | -106.93891 | 26416 ft | 452 kts | 343° |
| 2026-05-05 19:23 | 35.96082 | -106.94048 | 26755 ft | 468 kts | 353° |
| 2026-05-05 19:23 | 35.99371 | -106.93542 | 27080 ft | 482 kts | 1° |
| 2026-05-05 19:23 | 36.02685 | -106.92847 | 27414 ft | 485 kts | 0° |
| 2026-05-05 19:24 | 36.06032 | -106.92153 | 27757 ft | 489 kts | 0° |
| 2026-05-05 19:24 | 36.09399 | -106.91458 | 28099 ft | 492 kts | 360° |
| 2026-05-05 19:24 | 36.11643 | -106.90996 | 28295 ft | 495 kts | 360° |
| 2026-05-05 19:24 | 36.15059 | -106.90296 | 28629 ft | 499 kts | 359° |
| 2026-05-05 19:25 | 36.18506 | -106.89588 | 28961 ft | 504 kts | 359° |
| 2026-05-05 19:25 | 36.21979 | -106.88879 | 29264 ft | 508 kts | 359° |
| 2026-05-05 19:25 | 36.26621 | -106.87927 | 29700 ft | 513 kts | 359° |
| 2026-05-05 19:25 | 36.30156 | -106.87198 | 29996 ft | 515 kts | 359° |
| 2026-05-05 19:26 | 36.32513 | -106.86709 | 30182 ft | 517 kts | 359° |
| 2026-05-05 19:26 | 36.36078 | -106.85965 | 30459 ft | 519 kts | 359° |
| 2026-05-05 19:26 | 36.39648 | -106.85221 | 30808 ft | 519 kts | 359° |
| 2026-05-05 19:26 | 36.43207 | -106.84475 | 31224 ft | 518 kts | 358° |
| 2026-05-05 19:27 | 36.46764 | -106.83730 | 31637 ft | 517 kts | 358° |
| 2026-05-05 19:27 | 36.50313 | -106.82988 | 32003 ft | 516 kts | 358° |
| 2026-05-05 19:27 | 36.53850 | -106.82248 | 32449 ft | 514 kts | 358° |
| 2026-05-05 19:27 | 36.57384 | -106.81507 | 32725 ft | 514 kts | 358° |
| 2026-05-05 19:28 | 36.64313 | -106.80039 | 32789 ft | 502 kts | 357° |
| 2026-05-05 19:28 | 36.71188 | -106.78604 | 32804 ft | 500 kts | 357° |
| 2026-05-05 19:29 | 36.78016 | -106.77174 | 32801 ft | 500 kts | 359° |
| 2026-05-05 19:29 | 36.84842 | -106.75402 | 32823 ft | 503 kts | 2° |
| 2026-05-05 19:30 | 36.91675 | -106.73365 | 32832 ft | 504 kts | 2° |
| 2026-05-05 19:30 | 36.98504 | -106.71362 | 32835 ft | 503 kts | 1° |
| 2026-05-05 19:31 | 37.05282 | -106.69454 | 32825 ft | 501 kts | 1° |
| 2026-05-05 19:31 | 37.12083 | -106.67568 | 32864 ft | 500 kts | 1° |
| 2026-05-05 19:32 | 37.18878 | -106.65665 | 32874 ft | 499 kts | 2° |
| 2026-05-05 19:32 | 37.25663 | -106.63750 | 32871 ft | 498 kts | 1° |
| 2026-05-05 19:33 | 37.32387 | -106.61848 | 32850 ft | 497 kts | 1° |
| 2026-05-05 19:33 | 37.39145 | -106.59932 | 32843 ft | 497 kts | 2° |
| 2026-05-05 19:34 | 37.45919 | -106.58009 | 32855 ft | 497 kts | 1° |
| 2026-05-05 19:35 | 37.55983 | -106.55151 | 32886 ft | 495 kts | 2° |
| 2026-05-05 19:35 | 37.62714 | -106.53232 | 32905 ft | 495 kts | 2° |
| 2026-05-05 19:36 | 37.69436 | -106.51307 | 32921 ft | 495 kts | 2° |
| 2026-05-05 19:36 | 37.76114 | -106.49397 | 32940 ft | 494 kts | 2° |
| 2026-05-05 19:37 | 37.82819 | -106.47481 | 32907 ft | 493 kts | 2° |
| 2026-05-05 19:37 | 37.89512 | -106.45560 | 32866 ft | 492 kts | 2° |
| 2026-05-05 19:38 | 37.96199 | -106.43641 | 32882 ft | 492 kts | 3° |
| 2026-05-05 19:38 | 37.99488 | -106.42694 | 32730 ft | 489 kts | 3° |
| 2026-05-05 19:38 | 38.02804 | -106.41736 | 32727 ft | 487 kts | 3° |
| 2026-05-05 19:39 | 38.09418 | -106.39821 | 32732 ft | 487 kts | 3° |
| 2026-05-05 19:39 | 38.16038 | -106.37907 | 32729 ft | 487 kts | 3° |
| 2026-05-05 19:40 | 38.22667 | -106.35988 | 32756 ft | 487 kts | 4° |
| 2026-05-05 19:40 | 38.29240 | -106.34091 | 32756 ft | 486 kts | 3° |
| 2026-05-05 19:41 | 38.35829 | -106.32182 | 32790 ft | 484 kts | 3° |
| 2026-05-05 19:41 | 38.42415 | -106.30274 | 32823 ft | 484 kts | 3° |
| 2026-05-05 19:42 | 38.48924 | -106.28379 | 32827 ft | 479 kts | 4° |
| 2026-05-05 19:42 | 38.52150 | -106.27433 | 32591 ft | 471 kts | 4° |
| 2026-05-05 19:42 | 38.55320 | -106.26494 | 32340 ft | 463 kts | 4° |
| 2026-05-05 19:42 | 38.58438 | -106.25568 | 32080 ft | 457 kts | 5° |
| 2026-05-05 19:43 | 38.61493 | -106.24377 | 31829 ft | 461 kts | 14° |
| 2026-05-05 19:43 | 38.64393 | -106.22590 | 31567 ft | 465 kts | 25° |
| 2026-05-05 19:43 | 38.67063 | -106.20213 | 31324 ft | 469 kts | 36° |
| 2026-05-05 19:43 | 38.69374 | -106.17356 | 31121 ft | 466 kts | 47° |
| 2026-05-05 19:44 | 38.71441 | -106.14189 | 30900 ft | 460 kts | 48° |
| 2026-05-05 19:44 | 38.73471 | -106.11060 | 30603 ft | 455 kts | 48° |
| 2026-05-05 19:44 | 38.75502 | -106.07946 | 30183 ft | 453 kts | 47° |
| 2026-05-05 19:44 | 38.77522 | -106.04856 | 29739 ft | 451 kts | 48° |
| 2026-05-05 19:45 | 38.79526 | -106.01788 | 29345 ft | 446 kts | 48° |
| 2026-05-05 19:45 | 38.81509 | -105.98748 | 28950 ft | 442 kts | 47° |
| 2026-05-05 19:45 | 38.83471 | -105.95740 | 28540 ft | 439 kts | 47° |
| 2026-05-05 19:45 | 38.85428 | -105.92741 | 27921 ft | 436 kts | 47° |
| 2026-05-05 19:46 | 38.87361 | -105.89765 | 27573 ft | 432 kts | 47° |
| 2026-05-05 19:46 | 38.89282 | -105.86796 | 27190 ft | 430 kts | 47° |
| 2026-05-05 19:46 | 38.91158 | -105.83880 | 26822 ft | 428 kts | 47° |
| 2026-05-05 19:46 | 38.93053 | -105.80927 | 26449 ft | 426 kts | 48° |
| 2026-05-05 19:47 | 38.94936 | -105.77987 | 26080 ft | 425 kts | 48° |
| 2026-05-05 19:47 | 38.96809 | -105.75056 | 25688 ft | 424 kts | 48° |
| 2026-05-05 19:47 | 38.98677 | -105.72130 | 25282 ft | 422 kts | 48° |
| 2026-05-05 19:47 | 39.00515 | -105.69249 | 24880 ft | 421 kts | 48° |
| 2026-05-05 19:48 | 39.02370 | -105.66346 | 24499 ft | 418 kts | 48° |
| 2026-05-05 19:48 | 39.04202 | -105.63490 | 24463 ft | 408 kts | 47° |
| 2026-05-05 19:48 | 39.05998 | -105.60702 | 24223 ft | 401 kts | 47° |
| 2026-05-05 19:48 | 39.07755 | -105.57976 | 23978 ft | 397 kts | 47° |
| 2026-05-05 19:49 | 39.09513 | -105.55248 | 23633 ft | 394 kts | 47° |
| 2026-05-05 19:49 | 39.10693 | -105.53413 | 23391 ft | 392 kts | 47° |
| 2026-05-05 19:49 | 39.12986 | -105.49839 | 22902 ft | 388 kts | 47° |
| 2026-05-05 19:49 | 39.14701 | -105.47159 | 22464 ft | 386 kts | 47° |
| 2026-05-05 19:50 | 39.16405 | -105.44489 | 22052 ft | 384 kts | 48° |
| 2026-05-05 19:50 | 39.18093 | -105.41823 | 21675 ft | 382 kts | 48° |
| 2026-05-05 19:50 | 39.19761 | -105.39171 | 21246 ft | 380 kts | 48° |
| 2026-05-05 19:50 | 39.21423 | -105.36526 | 20841 ft | 378 kts | 48° |
| 2026-05-05 19:51 | 39.23068 | -105.33900 | 20452 ft | 376 kts | 48° |
| 2026-05-05 19:51 | 39.24712 | -105.31271 | 20060 ft | 374 kts | 48° |
| 2026-05-05 19:51 | 39.26323 | -105.28697 | 19688 ft | 373 kts | 48° |
| 2026-05-05 19:51 | 39.27782 | -105.25930 | 19294 ft | 373 kts | 61° |
| 2026-05-05 19:52 | 39.28723 | -105.22804 | 18921 ft | 373 kts | 75° |
| 2026-05-05 19:52 | 39.29172 | -105.19508 | 18559 ft | 372 kts | 81° |
| 2026-05-05 19:52 | 39.29557 | -105.16203 | 18189 ft | 371 kts | 81° |
| 2026-05-05 19:52 | 39.29942 | -105.12912 | 17789 ft | 369 kts | 81° |
| 2026-05-05 19:53 | 39.30323 | -105.09690 | 17412 ft | 366 kts | 81° |
| 2026-05-05 19:53 | 39.30707 | -105.06435 | 17047 ft | 364 kts | 81° |
| 2026-05-05 19:53 | 39.31087 | -105.03209 | 16668 ft | 361 kts | 82° |
| 2026-05-05 19:53 | 39.31470 | -105.00018 | 16294 ft | 358 kts | 80° |
| 2026-05-05 19:54 | 39.31953 | -104.96872 | 15995 ft | 354 kts | 77° |
| 2026-05-05 19:54 | 39.32512 | -104.93823 | 15868 ft | 345 kts | 76° |
| 2026-05-05 19:54 | 39.33096 | -104.90859 | 15760 ft | 336 kts | 75° |
| 2026-05-05 19:54 | 39.33675 | -104.87978 | 15633 ft | 327 kts | 74° |
| 2026-05-05 19:55 | 39.34300 | -104.85225 | 15519 ft | 319 kts | 72° |
| 2026-05-05 19:55 | 39.34986 | -104.82541 | 15393 ft | 310 kts | 68° |
| 2026-05-05 19:55 | 39.36035 | -104.80178 | 15265 ft | 298 kts | 46° |
| 2026-05-05 19:55 | 39.37538 | -104.78442 | 15122 ft | 285 kts | 27° |
| 2026-05-05 19:56 | 39.39300 | -104.77376 | 14852 ft | 276 kts | 12° |
| 2026-05-05 19:56 | 39.41122 | -104.76580 | 14586 ft | 275 kts | 13° |
| 2026-05-05 19:56 | 39.42908 | -104.75786 | 14458 ft | 268 kts | 13° |
| 2026-05-05 19:56 | 39.44661 | -104.75000 | 14262 ft | 265 kts | 13° |
| 2026-05-05 19:57 | 39.46384 | -104.74231 | 14022 ft | 264 kts | 13° |
| 2026-05-05 19:57 | 39.47537 | -104.73716 | 13864 ft | 263 kts | 13° |
| 2026-05-05 19:57 | 39.49847 | -104.72685 | 13508 ft | 261 kts | 13° |
| 2026-05-05 19:57 | 39.51560 | -104.71920 | 13241 ft | 259 kts | 14° |
| 2026-05-05 19:58 | 39.53264 | -104.71162 | 12994 ft | 257 kts | 14° |
| 2026-05-05 19:58 | 39.54926 | -104.70422 | 12753 ft | 254 kts | 15° |
| 2026-05-05 19:58 | 39.56587 | -104.69679 | 12329 ft | 250 kts | 15° |
| 2026-05-05 19:58 | 39.58232 | -104.68942 | 11884 ft | 248 kts | 17° |
| 2026-05-05 19:59 | 39.59854 | -104.68216 | 11449 ft | 246 kts | 17° |
| 2026-05-05 19:59 | 39.61470 | -104.67491 | 11024 ft | 244 kts | 18° |
| 2026-05-05 19:59 | 39.63070 | -104.66774 | 10596 ft | 242 kts | 19° |
| 2026-05-05 19:59 | 39.64665 | -104.66278 | 10204 ft | 238 kts | 2° |
| 2026-05-05 20:00 | 39.66297 | -104.66251 | 9982 ft | 225 kts | 1° |
| 2026-05-05 20:00 | 39.67865 | -104.66235 | 9392 ft | 227 kts | 2° |
| 2026-05-05 20:00 | 39.69495 | -104.66215 | 8327 ft | 241 kts | 3° |
| 2026-05-05 20:00 | 39.71136 | -104.66196 | 7854 ft | 225 kts | 3° |
| 2026-05-05 20:01 | 39.72629 | -104.66181 | 7573 ft | 204 kts | 4° |
| 2026-05-05 20:01 | 39.73967 | -104.66166 | 7331 ft | 181 kts | 4° |
| 2026-05-05 20:01 | 39.75158 | -104.66152 | 7099 ft | 163 kts | 4° |
| 2026-05-05 20:01 | 39.76266 | -104.66137 | 6887 ft | 157 kts | 6° |
| 2026-05-05 20:02 | 39.77323 | -104.66123 | 6699 ft | 152 kts | 5° |
| 2026-05-05 20:02 | 39.78377 | -104.66110 | 6485 ft | 150 kts | 5° |
| 2026-05-05 20:02 | 39.79417 | -104.66097 | 6243 ft | 148 kts | 5° |
| 2026-05-05 20:02 | 39.80433 | -104.66085 | 5994 ft | 145 kts | 6° |
| 2026-05-05 20:03 | 39.81451 | -104.66072 | 5785 ft | 146 kts | 4° |
| 2026-05-05 20:03 | 39.82467 | -104.66060 | 5575 ft | 145 kts | 4° |
| 2026-05-05 20:03 | 39.83449 | -104.66050 | 5423 ft | 130 kts | 2° |
| 2026-05-05 20:03 | 39.84191 | -104.66039 | 5418 ft | 86 kts | 0° |
| 2026-05-05 20:04 | 39.84687 | -104.66033 | 5409 ft | 59 kts | 1° |
| 2026-05-05 20:04 | 39.85033 | -104.66030 | 5395 ft | 41 kts | 357° |
| 2026-05-05 20:04 | 39.85244 | -104.66126 | 5397 ft | 25 kts | 328° |
| 2026-05-05 20:04 | 39.85361 | -104.66205 | 5396 ft | 15 kts | 347° |
| 2026-05-05 20:05 | 39.85458 | -104.66233 | 5395 ft | 14 kts | 346° |
| 2026-05-05 20:05 | 39.85553 | -104.66240 | 5392 ft | 14 kts | 1° |
| 2026-05-05 20:05 | 39.85652 | -104.66238 | 5395 ft | 14 kts | 360° |
| 2026-05-05 20:05 | 39.85751 | -104.66237 | 5394 ft | 14 kts | 0° |
| 2026-05-05 20:06 | 39.85854 | -104.66235 | 5394 ft | 16 kts | 0° |
| 2026-05-05 20:06 | 39.85969 | -104.66234 | 5391 ft | 17 kts | 0° |
| 2026-05-05 20:06 | 39.86091 | -104.66249 | 5388 ft | 16 kts | 322° |
| 2026-05-05 20:06 | 39.86106 | -104.66386 | 5386 ft | 16 kts | 269° |
| 2026-05-05 20:07 | 39.86138 | -104.66503 | 5386 ft | 14 kts | 339° |
| 2026-05-05 20:07 | 39.86181 | -104.66588 | 5386 ft | 12 kts | 268° |
| 2026-05-05 20:07 | 39.86181 | -104.66694 | 5386 ft | 12 kts | 270° |
| 2026-05-05 20:07 | 39.86193 | -104.66777 | 5386 ft | 6 kts | 313° |
| 2026-05-05 20:08 | 39.86219 | -104.66780 | 5386 ft | 4 kts | 0° |
| 2026-05-05 20:08 | 39.86247 | -104.66779 | 5385 ft | 0 kts | 1° |